createdAt,value
2022-10-04T00:02:26.767Z,11.60
2022-10-04T00:05:01.271Z,11.50
2022-10-04T00:07:33.518Z,11.50
2022-10-04T00:10:05.024Z,11.50
2022-10-04T00:12:39.363Z,11.40
2022-10-04T00:15:20.268Z,11.40
2022-10-04T00:18:18.442Z,11.20
2022-10-04T00:21:04.734Z,11.20
2022-10-04T00:23:47.730Z,11.20
2022-10-04T00:29:34.677Z,11.20
2022-10-04T00:32:28.980Z,11.10
2022-10-04T00:34:57.848Z,11.10
2022-10-04T00:37:27.160Z,11.10
2022-10-04T00:40:02.814Z,11.10
2022-10-04T00:42:52.110Z,11.00
2022-10-04T00:45:40.263Z,10.80
2022-10-04T00:48:31.940Z,10.80
2022-10-04T00:51:05.341Z,10.80
2022-10-04T00:53:43.064Z,10.80
2022-10-04T00:56:14.479Z,10.90
2022-10-04T03:10:44.685Z,9.70
2022-10-04T03:13:16.059Z,9.60
2022-10-04T03:15:44.828Z,9.60
2022-10-04T03:18:13.028Z,9.50
2022-10-04T03:20:42.202Z,9.50
2022-10-04T03:23:11.811Z,9.40
2022-10-04T03:25:46.227Z,9.60
2022-10-04T03:28:17.073Z,9.60
2022-10-04T03:30:46.469Z,9.70
2022-10-04T03:33:18.869Z,9.60
2022-10-04T03:35:50.142Z,9.70
2022-10-04T03:38:19.572Z,9.70
2022-10-04T04:01:13.866Z,9.70
2022-10-04T04:03:56.667Z,9.70
2022-10-04T04:06:26.581Z,9.80
2022-10-04T04:08:57.646Z,9.60
2022-10-04T04:11:27.854Z,9.70
2022-10-04T04:14:04.195Z,9.70
2022-10-04T04:16:32.475Z,9.70
2022-10-04T04:19:03.217Z,9.80
2022-10-04T04:21:32.910Z,9.80
2022-10-04T04:24:05.310Z,9.70
2022-10-04T04:26:39.272Z,9.60
2022-10-04T04:29:13.584Z,9.50
2022-10-04T04:31:47.160Z,9.50
2022-10-04T04:34:22.333Z,9.50
2022-10-04T04:36:50.374Z,9.50
2022-10-04T04:39:37.475Z,9.50
2022-10-04T04:42:13.493Z,9.40
2022-10-04T04:44:49.264Z,9.40
2022-10-04T04:47:28.852Z,9.50
2022-10-04T04:49:59.133Z,9.40
2022-10-04T04:52:30.447Z,9.40
2022-10-04T04:54:59.034Z,9.30
2022-10-04T04:57:27.337Z,9.30
2022-10-04T05:00:00.911Z,9.40
2022-10-04T05:02:35.121Z,9.40
2022-10-04T05:05:27.925Z,9.30
2022-10-04T05:08:12.851Z,9.30
2022-10-04T05:10:44.323Z,9.30
2022-10-04T05:13:13.920Z,9.30
2022-10-04T05:15:44.428Z,9.30
2022-10-04T05:18:29.348Z,9.20
2022-10-04T05:21:00.280Z,9.30
2022-10-04T05:23:29.044Z,9.30
2022-10-04T05:26:00.264Z,9.30
2022-10-04T05:28:29.601Z,9.30
2022-10-04T05:33:41.006Z,9.40
2022-10-04T05:36:41.769Z,9.40
2022-10-04T05:39:18.010Z,9.20
2022-10-04T05:41:55.097Z,9.40
2022-10-04T05:44:27.709Z,9.50
2022-10-04T05:47:00.109Z,9.30
2022-10-04T05:49:32.326Z,9.20
2022-10-04T05:52:03.575Z,9.10
2022-10-04T05:54:35.754Z,9.10
2022-10-04T05:57:21.662Z,9.20
2022-10-04T06:00:07.220Z,9.10
2022-10-04T06:03:03.668Z,9.10
2022-10-04T06:05:38.191Z,9.10
2022-10-04T06:08:11.368Z,9.10
2022-10-04T06:10:54.117Z,9.00
2022-10-04T06:13:59.442Z,9.00
2022-10-04T06:16:39.920Z,9.10
2022-10-04T06:19:51.223Z,9.10
2022-10-04T06:22:21.227Z,9.10
2022-10-04T06:24:52.090Z,9.00
2022-10-04T06:27:25.877Z,9.10
2022-10-04T06:29:59.409Z,9.10
2022-10-04T06:32:51.935Z,9.10
2022-10-04T06:35:51.430Z,9.10
2022-10-04T06:38:49.354Z,9.30
2022-10-04T06:41:51.392Z,9.50
2022-10-04T06:44:46.592Z,9.50
2022-10-04T06:47:26.834Z,9.40
2022-10-04T06:50:01.610Z,9.50
2022-10-04T06:52:58.584Z,9.50
2022-10-04T06:55:50.982Z,9.60
2022-10-04T06:58:35.595Z,9.70
2022-10-04T07:01:10.462Z,9.80
2022-10-04T07:03:42.199Z,10.10
2022-10-04T07:08:48.391Z,10.70
2022-10-04T07:11:22.134Z,10.70
2022-10-04T07:13:57.658Z,10.80
2022-10-04T07:16:28.826Z,11.00
2022-10-04T07:19:04.854Z,11.70
2022-10-04T07:21:39.597Z,12.00
2022-10-04T07:24:13.545Z,11.90
2022-10-04T07:26:47.248Z,12.10
2022-10-04T07:29:21.863Z,12.40
2022-10-04T07:32:03.980Z,12.70
2022-10-04T07:34:34.441Z,13.00
2022-10-04T07:37:10.552Z,13.50
2022-10-04T07:39:50.477Z,13.80
2022-10-04T07:42:26.106Z,14.00
2022-10-04T07:45:06.197Z,14.40
2022-10-04T07:47:34.263Z,14.60
2022-10-04T07:50:27.502Z,14.90
2022-10-04T07:52:59.738Z,15.40
2022-10-04T07:58:15.306Z,16.20
2022-10-04T08:00:51.307Z,15.90
2022-10-04T08:06:11.564Z,15.90
2022-10-04T08:08:55.678Z,16.30
2022-10-04T08:11:37.160Z,16.90
2022-10-04T08:14:19.312Z,17.30
2022-10-04T08:16:54.315Z,17.10
2022-10-04T08:19:38.583Z,17.30
2022-10-04T08:22:18.927Z,18.00
2022-10-04T08:25:00.430Z,18.50
2022-10-04T08:27:39.313Z,18.60
2022-10-04T08:30:12.646Z,18.50
2022-10-04T08:32:52.391Z,18.70
2022-10-04T08:35:36.136Z,19.00
2022-10-04T08:38:21.228Z,18.90
2022-10-04T08:41:28.538Z,19.10
2022-10-04T08:44:39.371Z,19.90
2022-10-04T08:51:01.926Z,19.90
2022-10-04T08:54:06.830Z,20.20
2022-10-04T08:59:46.665Z,21.30
2022-10-04T09:05:27.628Z,21.20
2022-10-04T09:08:38.621Z,21.10
2022-10-04T09:11:34.055Z,22.10
2022-10-04T09:14:23.527Z,22.10
2022-10-04T09:17:08.847Z,22.90
2022-10-04T09:19:50.751Z,22.70
2022-10-04T09:25:21.542Z,22.70
2022-10-04T09:28:12.586Z,22.60
2022-10-04T09:30:59.576Z,22.10
2022-10-04T09:42:48.306Z,22.90
2022-10-04T09:48:25.257Z,23.50
2022-10-04T09:51:31.747Z,24.30
2022-10-04T09:54:55.147Z,24.50
2022-10-04T09:57:33.604Z,24.70
2022-10-04T10:00:23.365Z,24.50
2022-10-04T10:03:27.449Z,24.70
2022-10-04T10:06:32.873Z,25.50
2022-10-04T10:09:19.545Z,25.50
2022-10-04T10:15:04.119Z,24.40
2022-10-04T10:17:40.343Z,25.10
2022-10-04T10:20:51.161Z,25.30
2022-10-04T10:29:03.866Z,25.90
2022-10-04T10:31:50.950Z,26.10
2022-10-04T10:34:47.754Z,25.60
2022-10-04T10:37:22.402Z,25.60
2022-10-04T10:40:16.771Z,24.60
2022-10-04T10:43:07.461Z,24.60
2022-10-04T10:45:48.621Z,25.10
2022-10-04T10:48:22.430Z,25.00
2022-10-04T10:51:02.688Z,24.90
2022-10-04T10:54:08.389Z,24.40
2022-10-04T11:05:48.606Z,26.70
2022-10-04T11:08:46.183Z,26.30
2022-10-04T11:11:32.562Z,26.50
2022-10-04T11:17:13.376Z,27.10
2022-10-04T11:20:11.195Z,27.50
2022-10-04T11:23:29.528Z,27.30
2022-10-04T11:26:25.011Z,27.50
2022-10-04T11:28:58.994Z,26.20
2022-10-04T11:32:00.534Z,26.80
2022-10-04T11:37:53.682Z,27.20
2022-10-04T11:48:22.111Z,28.20
2022-10-04T11:51:33.293Z,28.30
2022-10-04T11:54:27.493Z,28.20
2022-10-04T11:57:22.083Z,27.40
2022-10-04T12:00:00.313Z,27.10
2022-10-04T12:05:34.213Z,28.20
2022-10-04T12:08:19.643Z,27.70
2022-10-04T12:11:04.836Z,27.20
2022-10-04T12:13:59.774Z,28.10
2022-10-04T12:19:29.987Z,29.30
2022-10-04T12:22:25.105Z,29.00
2022-10-04T12:25:27.974Z,28.60
2022-10-04T12:28:26.416Z,28.10
2022-10-04T12:31:15.264Z,28.30
2022-10-04T12:33:47.872Z,27.90
2022-10-04T12:39:14.258Z,28.70
2022-10-04T12:41:53.855Z,28.00
2022-10-04T12:44:32.715Z,28.60
2022-10-04T12:47:38.344Z,28.10
2022-10-04T12:50:18.717Z,28.30
2022-10-04T12:52:55.482Z,29.00
2022-10-04T12:58:01.971Z,28.90
2022-10-04T13:00:37.193Z,29.00
2022-10-04T13:03:40.231Z,28.80
2022-10-04T13:11:39.240Z,31.00
2022-10-04T13:14:33.221Z,30.90
2022-10-04T13:20:18.004Z,30.40
2022-10-04T13:22:56.934Z,30.00
2022-10-04T13:25:41.662Z,29.30
2022-10-04T13:28:24.351Z,29.00
2022-10-04T13:31:01.307Z,29.30
2022-10-04T13:33:37.458Z,29.50
2022-10-04T13:36:10.829Z,29.30
2022-10-04T13:41:47.548Z,29.40
2022-10-04T13:47:30.796Z,30.10
2022-10-04T13:50:27.867Z,29.80
2022-10-04T13:53:24.038Z,29.90
2022-10-04T13:56:13.376Z,29.80
2022-10-04T13:58:49.339Z,28.90
2022-10-04T14:01:56.305Z,28.90
2022-10-04T14:04:52.780Z,28.70
2022-10-04T14:07:37.234Z,28.40
2022-10-04T14:16:05.870Z,28.30
2022-10-04T14:19:07.023Z,27.60
2022-10-04T14:22:04.770Z,27.20
2022-10-04T14:25:21.754Z,27.40
2022-10-04T14:28:14.617Z,27.40
2022-10-04T14:31:00.187Z,26.90
2022-10-04T14:33:59.046Z,26.90
2022-10-04T14:36:58.991Z,27.40
2022-10-04T14:39:54.795Z,26.20
2022-10-04T14:42:49.693Z,26.40
2022-10-04T14:45:38.638Z,26.50
2022-10-04T14:48:28.521Z,26.00
2022-10-04T14:51:14.355Z,25.90
2022-10-04T14:53:48.111Z,25.90
2022-10-04T14:56:44.518Z,26.10
2022-10-04T14:59:45.383Z,25.40
2022-10-04T15:02:44.368Z,26.10
2022-10-04T15:08:45.993Z,25.30
2022-10-04T15:11:18.893Z,24.60
2022-10-04T15:13:55.771Z,24.20
2022-10-04T15:16:37.332Z,24.40
2022-10-04T15:19:11.220Z,24.00
2022-10-04T15:35:00.284Z,22.90
2022-10-04T15:37:44.060Z,22.50
2022-10-04T15:40:33.376Z,22.40
2022-10-04T15:43:27.122Z,22.20
2022-10-04T15:46:31.894Z,22.50
2022-10-04T15:49:26.032Z,22.50
2022-10-04T15:54:52.208Z,21.80
2022-10-04T16:00:08.850Z,21.80
2022-10-04T16:05:32.581Z,21.90
2022-10-04T16:10:58.590Z,21.60
2022-10-04T16:13:44.746Z,21.80
2022-10-04T16:16:48.813Z,21.90
2022-10-04T16:24:42.277Z,21.30
2022-10-04T16:27:46.342Z,21.40
2022-10-04T16:30:27.228Z,21.20
2022-10-04T16:33:25.580Z,21.00
2022-10-04T16:38:57.904Z,20.50
2022-10-04T16:44:03.961Z,20.60
2022-10-04T16:46:37.740Z,20.60
2022-10-04T16:49:22.861Z,20.40
2022-10-04T16:52:09.220Z,20.30
2022-10-04T16:55:04.593Z,20.30
2022-10-04T16:57:32.685Z,20.00
2022-10-04T17:00:05.872Z,19.80
2022-10-04T17:03:04.272Z,19.70
2022-10-04T17:06:03.088Z,19.60
2022-10-04T17:08:49.913Z,19.50
2022-10-04T17:11:41.443Z,19.50
2022-10-04T17:14:33.109Z,19.30
2022-10-04T17:17:12.445Z,19.30
2022-10-04T17:19:49.155Z,19.20
2022-10-04T17:22:28.861Z,18.90
2022-10-04T17:25:05.841Z,18.70
2022-10-04T17:27:51.710Z,18.60
2022-10-04T17:30:22.556Z,18.70
2022-10-04T17:33:16.709Z,18.70
2022-10-04T17:35:59.767Z,18.70
2022-10-04T17:38:36.367Z,18.60
2022-10-04T17:41:16.201Z,18.60
2022-10-04T17:44:13.934Z,18.50
2022-10-04T17:49:41.490Z,18.40
2022-10-04T17:55:19.429Z,18.10
2022-10-04T17:57:50.358Z,18.00
2022-10-04T18:00:23.761Z,17.90
2022-10-04T18:15:59.494Z,17.30
2022-10-04T18:18:31.654Z,17.30
2022-10-04T18:21:18.812Z,17.20
2022-10-04T18:23:55.127Z,17.10
2022-10-04T18:28:54.927Z,16.80
2022-10-04T18:31:36.084Z,16.60
2022-10-04T18:34:18.038Z,16.50
2022-10-04T18:37:06.795Z,16.40
2022-10-04T18:39:49.555Z,16.40
2022-10-04T18:42:23.567Z,16.30
2022-10-04T18:44:59.686Z,16.40
2022-10-04T18:47:37.012Z,16.50
2022-10-04T18:50:17.761Z,16.40
2022-10-04T18:53:04.214Z,16.30
2022-10-04T18:55:42.195Z,16.20
2022-10-04T18:58:37.436Z,16.20
2022-10-04T19:02:02.821Z,16.20
2022-10-04T19:04:45.116Z,16.30
2022-10-04T19:07:16.414Z,16.10
2022-10-04T19:10:13.154Z,16.20
2022-10-04T19:12:52.772Z,16.30
2022-10-04T19:15:34.962Z,16.30
2022-10-04T19:18:15.293Z,16.30
2022-10-04T19:20:53.146Z,16.30
2022-10-04T19:23:32.061Z,16.20
2022-10-04T19:26:31.155Z,16.10
2022-10-04T19:31:39.689Z,15.90
2022-10-04T19:34:15.709Z,15.90
2022-10-04T19:36:53.842Z,16.00
2022-10-04T19:39:34.051Z,16.00
2022-10-04T19:42:05.622Z,15.90
2022-10-04T19:44:59.905Z,15.90
2022-10-04T19:47:39.942Z,15.90
2022-10-04T19:50:18.940Z,16.00
2022-10-04T19:52:54.382Z,15.90
2022-10-04T19:55:24.064Z,15.90
2022-10-04T19:57:58.497Z,15.90
2022-10-04T20:00:26.503Z,15.90
2022-10-04T20:02:54.678Z,16.00
2022-10-04T20:05:24.969Z,16.00
2022-10-04T20:08:01.473Z,16.00
2022-10-04T20:10:35.710Z,16.00
2022-10-04T20:13:24.143Z,15.90
2022-10-04T20:15:55.105Z,16.00
2022-10-04T20:18:59.109Z,16.00
2022-10-04T20:21:31.411Z,16.00
2022-10-04T20:24:01.743Z,16.20
2022-10-04T20:26:56.581Z,16.00
2022-10-04T20:30:07.602Z,15.50
2022-10-04T20:36:09.087Z,16.40
2022-10-04T20:42:20.253Z,15.90
2022-10-04T20:44:58.207Z,15.90
2022-10-04T20:55:27.376Z,16.00
2022-10-04T20:58:01.313Z,16.00
2022-10-04T21:00:34.520Z,15.90
2022-10-04T21:05:38.947Z,15.90
2022-10-04T21:08:25.227Z,15.90
2022-10-04T21:11:23.299Z,15.80
2022-10-04T21:13:57.245Z,16.00
2022-10-04T21:16:45.310Z,16.00
2022-10-04T21:19:44.217Z,16.00
2022-10-04T21:22:31.676Z,16.00
2022-10-04T21:27:30.689Z,15.80
2022-10-04T21:29:59.644Z,15.90
2022-10-04T21:34:58.248Z,15.90
2022-10-04T21:42:23.142Z,16.00
2022-10-04T21:44:51.150Z,15.90
2022-10-04T21:49:51.815Z,15.90
2022-10-04T21:52:20.266Z,15.90
2022-10-04T21:54:48.501Z,16.00
2022-10-04T21:57:16.532Z,15.90
2022-10-04T21:59:44.547Z,16.10
2022-10-04T22:02:12.624Z,16.10
2022-10-04T22:07:11.556Z,16.10
2022-10-04T22:09:39.589Z,16.20
2022-10-04T22:12:07.662Z,16.10
2022-10-04T22:14:35.709Z,15.90
2022-10-04T22:17:04.015Z,16.00
2022-10-04T22:19:32.140Z,15.90
2022-10-04T22:22:00.162Z,15.90
2022-10-04T22:24:30.142Z,15.90
2022-10-04T22:26:59.434Z,15.90
2022-10-04T22:29:27.961Z,15.80
2022-10-04T22:31:56.308Z,15.80
2022-10-04T22:34:24.478Z,15.80
2022-10-04T22:39:22.028Z,16.00
2022-10-04T22:41:59.260Z,16.10
2022-10-04T22:44:30.973Z,16.00
2022-10-04T22:47:01.091Z,15.90
2022-10-04T22:49:31.591Z,15.90
2022-10-04T22:52:02.085Z,15.90
2022-10-04T22:54:33.638Z,16.00
2022-10-04T22:57:03.213Z,15.90
2022-10-04T22:59:40.017Z,15.70
2022-10-04T23:02:14.494Z,15.90
2022-10-04T23:14:42.806Z,15.90
2022-10-04T23:44:59.144Z,15.90
2022-10-04T23:47:36.217Z,15.70
2022-10-04T23:50:18.988Z,15.80
2022-10-04T23:52:47.117Z,15.80
2022-10-04T23:55:21.282Z,15.80
2022-10-04T23:57:52.930Z,15.70
